createdAt,value
2022-08-28T00:01:32.871Z,75.80
2022-08-28T00:04:00.315Z,75.30
2022-08-28T00:06:27.429Z,75.30
2022-08-28T00:08:54.595Z,75.30
2022-08-28T00:11:21.558Z,73.80
2022-08-28T00:13:48.815Z,75.00
2022-08-28T00:16:18.134Z,75.80
2022-08-28T00:18:45.341Z,75.80
2022-08-28T00:21:14.647Z,75.80
2022-08-28T00:23:43.308Z,75.70
2022-08-28T00:26:32.545Z,76.20
2022-08-28T00:28:59.702Z,76.40
2022-08-28T00:31:26.779Z,75.20
2022-08-28T00:33:53.751Z,76.40
2022-08-28T00:36:20.732Z,77.00
2022-08-28T00:38:47.637Z,76.50
2022-08-28T00:41:15.124Z,76.40
2022-08-28T00:43:47.043Z,76.50
2022-08-28T00:46:17.774Z,77.10
2022-08-28T00:48:44.902Z,76.90
2022-08-28T00:51:30.961Z,76.20
2022-08-28T00:53:58.996Z,76.30
2022-08-28T00:56:26.826Z,76.20
2022-08-28T00:58:54.750Z,77.40
2022-08-28T01:01:21.764Z,76.40
2022-08-28T01:03:48.819Z,76.60
2022-08-28T01:06:16.273Z,76.70
2022-08-28T01:08:44.382Z,77.20
2022-08-28T01:11:18.010Z,76.80
2022-08-28T01:13:47.077Z,76.50
2022-08-28T01:16:15.426Z,76.80
2022-08-28T01:18:42.502Z,76.90
2022-08-28T01:21:37.867Z,76.40
2022-08-28T01:24:09.315Z,79.10
2022-08-28T01:26:37.549Z,77.90
2022-08-28T01:29:04.526Z,75.30
2022-08-28T01:31:31.768Z,75.60
2022-08-28T01:34:01.527Z,77.60
2022-08-28T01:36:29.287Z,77.40
2022-08-28T01:39:20.823Z,77.40
2022-08-28T01:41:49.066Z,79.90
2022-08-28T01:44:18.160Z,77.30
2022-08-28T01:46:45.595Z,77.90
2022-08-28T01:49:12.578Z,76.40
2022-08-28T01:51:41.221Z,76.60
2022-08-28T01:54:09.010Z,78.10
2022-08-28T01:56:36.954Z,78.20
2022-08-28T01:59:06.272Z,78.20
2022-08-28T02:01:33.605Z,78.30
2022-08-28T02:04:01.072Z,77.70
2022-08-28T02:06:28.068Z,78.00
2022-08-28T02:08:55.685Z,78.70
2022-08-28T02:11:26.228Z,78.40
2022-08-28T02:13:54.311Z,78.50
2022-08-28T02:16:23.338Z,77.00
2022-08-28T02:18:50.321Z,79.00
2022-08-28T02:21:17.399Z,78.50
2022-08-28T02:23:44.712Z,78.60
2022-08-28T02:26:11.904Z,78.70
2022-08-28T02:28:38.903Z,79.70
2022-08-28T02:31:08.451Z,79.50
2022-08-28T02:33:39.463Z,79.20
2022-08-28T02:36:08.301Z,78.40
2022-08-28T02:38:35.577Z,78.30
2022-08-28T02:41:04.321Z,79.40
2022-08-28T02:43:31.342Z,77.80
2022-08-28T02:45:58.973Z,79.80
2022-08-28T02:48:30.130Z,79.50
2022-08-28T02:51:02.900Z,79.80
2022-08-28T02:53:30.246Z,79.50
2022-08-28T02:55:57.393Z,79.70
2022-08-28T02:58:26.862Z,80.80
2022-08-28T03:00:54.553Z,78.40
2022-08-28T03:03:21.564Z,78.40
2022-08-28T03:05:48.578Z,78.10
2022-08-28T03:08:15.518Z,79.70
2022-08-28T03:10:42.514Z,79.70
2022-08-28T03:13:09.539Z,80.00
2022-08-28T03:15:43.692Z,79.90
2022-08-28T03:18:13.413Z,79.70
2022-08-28T03:20:41.883Z,80.00
2022-08-28T03:23:26.829Z,79.60
2022-08-28T03:25:57.211Z,79.80
2022-08-28T03:28:25.412Z,79.90
2022-08-28T03:30:52.658Z,79.10
2022-08-28T03:33:19.944Z,79.40
2022-08-28T03:35:46.994Z,79.50
2022-08-28T03:38:14.115Z,78.20
2022-08-28T03:40:42.593Z,79.00
2022-08-28T03:43:16.784Z,79.80
2022-08-28T03:46:01.353Z,80.20
2022-08-28T03:48:29.888Z,81.00
2022-08-28T03:50:57.168Z,80.00
2022-08-28T03:53:25.520Z,80.00
2022-08-28T03:55:52.629Z,80.10
2022-08-28T03:58:19.599Z,80.60
2022-08-28T04:00:46.667Z,80.00
2022-08-28T04:03:13.915Z,79.90
2022-08-28T04:05:41.507Z,79.90
2022-08-28T04:08:08.766Z,79.10
2022-08-28T04:10:36.771Z,80.60
2022-08-28T04:13:03.727Z,80.80
2022-08-28T04:15:30.727Z,81.10
2022-08-28T04:17:57.881Z,81.00
2022-08-28T04:20:24.850Z,81.40
2022-08-28T04:22:55.231Z,80.40
2022-08-28T04:25:22.706Z,80.40
2022-08-28T04:27:50.737Z,80.80
2022-08-28T04:30:18.877Z,80.80
2022-08-28T04:32:45.902Z,80.60
2022-08-28T04:35:13.238Z,80.80
2022-08-28T04:37:40.491Z,81.10
2022-08-28T04:40:09.971Z,80.50
2022-08-28T04:42:38.185Z,80.90
2022-08-28T04:45:06.421Z,79.30
2022-08-28T04:47:38.053Z,80.60
2022-08-28T04:50:05.966Z,81.20
2022-08-28T04:52:32.993Z,81.70
2022-08-28T04:54:59.970Z,81.10
2022-08-28T04:57:26.901Z,81.10
2022-08-28T04:59:54.000Z,80.90
2022-08-28T05:02:21.051Z,80.60
2022-08-28T05:04:48.081Z,80.70
2022-08-28T05:07:15.020Z,80.20
2022-08-28T05:09:42.017Z,80.50
2022-08-28T05:12:09.050Z,80.70
2022-08-28T05:14:36.730Z,80.80
2022-08-28T05:17:04.038Z,80.90
2022-08-28T05:19:32.808Z,80.70
2022-08-28T05:21:59.751Z,80.80
2022-08-28T05:24:26.774Z,80.90
2022-08-28T05:26:53.813Z,81.70
2022-08-28T05:29:20.818Z,81.60
2022-08-28T05:31:50.550Z,81.70
2022-08-28T05:34:17.502Z,80.40
2022-08-28T05:36:44.459Z,80.50
2022-08-28T05:39:11.759Z,80.50
2022-08-28T05:41:40.767Z,81.40
2022-08-28T05:44:09.458Z,82.00
2022-08-28T05:46:37.668Z,81.30
2022-08-28T05:49:09.135Z,81.10
2022-08-28T05:51:37.256Z,81.20
2022-08-28T05:54:04.358Z,81.60
2022-08-28T05:56:32.892Z,81.20
2022-08-28T05:59:00.458Z,81.10
2022-08-28T06:01:32.228Z,81.10
2022-08-28T06:04:01.425Z,80.80
2022-08-28T06:06:29.873Z,80.40
2022-08-28T06:09:01.704Z,80.80
2022-08-28T06:11:30.750Z,80.80
2022-08-28T06:14:02.758Z,80.90
2022-08-28T06:16:30.977Z,81.20
2022-08-28T06:18:58.227Z,81.10
2022-08-28T06:21:25.273Z,81.00
2022-08-28T06:23:52.248Z,81.10
2022-08-28T06:26:19.213Z,81.10
2022-08-28T06:28:46.244Z,80.90
2022-08-28T06:31:24.249Z,80.50
2022-08-28T06:33:57.594Z,81.40
2022-08-28T06:36:25.568Z,82.20
2022-08-28T06:38:52.542Z,81.30
2022-08-28T06:41:19.745Z,81.10
2022-08-28T06:43:46.793Z,81.40
2022-08-28T06:46:13.847Z,80.80
2022-08-28T06:48:41.008Z,80.60
2022-08-28T06:51:09.593Z,80.60
2022-08-28T06:53:36.770Z,80.80
2022-08-28T06:56:26.414Z,80.70
2022-08-28T06:58:55.459Z,80.30
2022-08-28T07:01:30.957Z,80.60
2022-08-28T07:04:01.279Z,80.70
2022-08-28T07:06:30.587Z,80.20
2022-08-28T07:08:57.544Z,79.30
2022-08-28T07:11:29.856Z,79.70
2022-08-28T07:13:57.115Z,77.20
2022-08-28T07:16:26.454Z,77.20
2022-08-28T07:18:53.722Z,75.60
2022-08-28T07:21:20.860Z,77.50
2022-08-28T07:23:47.887Z,75.70
2022-08-28T07:26:20.093Z,74.80
2022-08-28T07:28:47.423Z,74.00
2022-08-28T07:31:17.539Z,69.70
2022-08-28T07:33:44.702Z,69.40
2022-08-28T07:36:16.092Z,71.50
2022-08-28T07:38:58.043Z,70.70
2022-08-28T07:41:26.985Z,70.80
2022-08-28T07:44:12.443Z,70.30
2022-08-28T07:46:39.716Z,68.60
2022-08-28T07:49:08.234Z,68.40
2022-08-28T07:51:35.216Z,68.30
2022-08-28T07:54:04.043Z,66.70
2022-08-28T07:56:31.287Z,65.50
2022-08-28T07:58:58.978Z,61.60
2022-08-28T08:01:27.068Z,65.70
2022-08-28T08:04:01.213Z,62.30
2022-08-28T08:06:34.460Z,61.20
2022-08-28T08:09:02.412Z,56.30
2022-08-28T08:11:32.474Z,60.80
2022-08-28T08:14:04.729Z,57.30
2022-08-28T08:16:34.797Z,55.70
2022-08-28T08:19:01.971Z,47.80
2022-08-28T08:21:30.475Z,54.70
2022-08-28T08:23:57.784Z,51.60
2022-08-28T08:26:25.907Z,55.60
2022-08-28T08:28:52.854Z,48.80
2022-08-28T08:31:23.559Z,43.00
2022-08-28T08:33:52.103Z,41.80
2022-08-28T08:36:20.398Z,48.10
2022-08-28T08:38:47.391Z,45.00
2022-08-28T08:41:21.584Z,41.40
2022-08-28T08:44:08.431Z,41.30
2022-08-28T08:46:52.546Z,36.90
2022-08-28T08:49:23.364Z,36.20
2022-08-28T08:52:17.608Z,40.40
2022-08-28T08:54:46.756Z,34.20
2022-08-28T08:57:14.805Z,37.30
2022-08-28T08:59:41.774Z,36.60
2022-08-28T09:02:18.160Z,42.00
2022-08-28T09:05:01.755Z,37.50
2022-08-28T09:07:56.887Z,37.60
2022-08-28T09:10:25.305Z,37.90
2022-08-28T09:13:12.184Z,41.90
2022-08-28T09:15:47.565Z,39.10
2022-08-28T09:18:32.777Z,43.60
2022-08-28T09:21:00.150Z,38.90
2022-08-28T09:23:29.806Z,40.00
2022-08-28T09:26:06.079Z,39.30
2022-08-28T09:28:36.971Z,38.50
2022-08-28T09:31:15.802Z,40.20
2022-08-28T09:33:48.951Z,40.30
2022-08-28T09:36:33.021Z,42.50
2022-08-28T09:39:11.097Z,42.70
2022-08-28T09:42:12.131Z,42.60
2022-08-28T09:44:51.305Z,43.00
2022-08-28T09:47:46.839Z,44.10
2022-08-28T09:50:27.428Z,42.30
2022-08-28T09:52:56.615Z,43.10
2022-08-28T09:55:35.694Z,42.50
2022-08-28T09:58:03.727Z,43.50
2022-08-28T10:00:32.126Z,43.10
2022-08-28T10:03:36.409Z,40.20
2022-08-28T10:06:32.064Z,38.40
2022-08-28T10:09:20.060Z,40.30
2022-08-28T10:12:01.882Z,39.70
2022-08-28T10:15:03.271Z,37.90
2022-08-28T10:17:57.357Z,37.70
2022-08-28T10:20:24.457Z,39.60
2022-08-28T10:23:17.426Z,39.70
2022-08-28T10:25:54.750Z,39.30
2022-08-28T10:28:52.734Z,40.10
2022-08-28T10:31:25.378Z,39.40
2022-08-28T10:34:29.437Z,38.20
2022-08-28T10:37:15.222Z,38.40
2022-08-28T10:39:51.189Z,38.50
2022-08-28T10:42:41.602Z,37.60
2022-08-28T10:45:21.098Z,37.10
2022-08-28T10:47:59.873Z,37.90
2022-08-28T10:50:37.499Z,38.20
2022-08-28T10:53:07.388Z,38.40
2022-08-28T10:55:37.975Z,38.40
2022-08-28T10:58:24.165Z,38.50
2022-08-28T11:01:06.371Z,35.50
2022-08-28T11:03:40.535Z,35.20
2022-08-28T11:06:16.488Z,34.90
2022-08-28T11:08:45.435Z,35.70
2022-08-28T11:11:13.961Z,35.90
2022-08-28T11:13:56.153Z,35.60
2022-08-28T11:16:40.278Z,35.20
2022-08-28T11:19:27.702Z,34.50
2022-08-28T11:22:15.044Z,34.90
2022-08-28T11:24:48.456Z,33.50
2022-08-28T11:27:18.433Z,35.70
2022-08-28T11:29:57.580Z,34.40
2022-08-28T11:32:33.507Z,32.50
2022-08-28T11:35:21.127Z,33.20
2022-08-28T11:37:49.606Z,33.20
2022-08-28T11:40:18.649Z,34.70
2022-08-28T11:42:48.898Z,35.20
2022-08-28T11:45:47.212Z,33.50
2022-08-28T11:48:33.529Z,33.90
2022-08-28T11:51:18.546Z,32.80
2022-08-28T11:54:02.367Z,33.00
2022-08-28T11:56:32.927Z,31.90
2022-08-28T11:59:09.980Z,33.40
2022-08-28T12:01:37.526Z,32.80
2022-08-28T12:04:13.927Z,33.50
2022-08-28T12:07:25.664Z,33.60
2022-08-28T12:09:53.239Z,33.10
2022-08-28T12:12:22.730Z,33.00
2022-08-28T12:14:55.765Z,31.90
2022-08-28T12:17:22.745Z,32.20
2022-08-28T12:19:56.406Z,34.10
2022-08-28T12:22:25.282Z,33.20
2022-08-28T12:24:59.714Z,32.00
2022-08-28T12:27:26.693Z,32.80
2022-08-28T12:29:57.551Z,33.70
2022-08-28T12:32:34.806Z,33.10
2022-08-28T12:35:02.264Z,32.50
2022-08-28T12:37:29.542Z,31.30
2022-08-28T12:39:59.917Z,33.00
2022-08-28T12:42:31.791Z,31.70
2022-08-28T12:45:03.624Z,31.70
2022-08-28T12:47:30.611Z,32.10
2022-08-28T12:49:57.730Z,33.60
2022-08-28T12:52:25.786Z,32.80
2022-08-28T12:54:55.478Z,31.70
2022-08-28T12:57:23.592Z,30.80
2022-08-28T12:59:54.898Z,32.00
2022-08-28T13:02:29.412Z,30.10
2022-08-28T13:04:59.328Z,31.30
2022-08-28T13:07:29.077Z,32.10
2022-08-28T13:09:57.041Z,32.70
2022-08-28T13:12:55.799Z,33.80
2022-08-28T13:15:45.846Z,33.30
2022-08-28T13:18:52.203Z,32.40
2022-08-28T13:21:32.853Z,32.70
2022-08-28T13:24:37.169Z,32.50
2022-08-28T13:27:16.031Z,33.20
2022-08-28T13:30:00.905Z,32.40
2022-08-28T13:32:33.121Z,30.90
2022-08-28T13:35:18.158Z,32.30
2022-08-28T13:37:48.755Z,31.50
2022-08-28T13:40:45.956Z,31.20
2022-08-28T13:43:07.170Z,33.30
2022-08-28T13:45:42.944Z,31.70
2022-08-28T13:48:14.094Z,32.90
2022-08-28T13:50:42.875Z,32.80
2022-08-28T13:53:14.619Z,32.00
2022-08-28T13:55:41.661Z,31.90
2022-08-28T13:58:08.636Z,33.10
2022-08-28T14:00:37.385Z,33.20
2022-08-28T14:03:22.866Z,33.40
2022-08-28T14:05:49.862Z,33.70
2022-08-28T14:08:16.772Z,34.20
2022-08-28T14:10:43.811Z,33.70
2022-08-28T14:13:10.784Z,34.00
2022-08-28T14:15:37.797Z,33.30
2022-08-28T14:18:05.510Z,34.80
2022-08-28T14:20:32.609Z,33.30
2022-08-28T14:22:59.685Z,33.50
2022-08-28T14:25:26.614Z,33.00
2022-08-28T14:27:55.359Z,32.60
2022-08-28T14:30:22.754Z,34.20
2022-08-28T14:32:49.733Z,33.10
2022-08-28T14:35:16.689Z,32.70
2022-08-28T14:37:43.708Z,32.80
2022-08-28T14:40:12.832Z,33.90
2022-08-28T14:42:41.909Z,33.20
2022-08-28T14:45:09.313Z,33.20
2022-08-28T14:47:39.268Z,33.80
2022-08-28T14:50:06.982Z,34.80
2022-08-28T14:52:33.971Z,34.10
2022-08-28T14:55:00.901Z,34.40
2022-08-28T14:57:27.922Z,33.70
2022-08-28T14:59:54.939Z,32.40
2022-08-28T15:02:21.914Z,31.90
2022-08-28T15:04:48.897Z,32.30
2022-08-28T15:07:16.045Z,32.50
2022-08-28T15:09:43.148Z,33.00
2022-08-28T15:12:10.572Z,33.90
2022-08-28T15:14:37.526Z,33.60
2022-08-28T15:17:04.772Z,32.90
2022-08-28T15:19:31.802Z,33.70
2022-08-28T15:21:58.975Z,34.80
2022-08-28T15:24:28.767Z,35.40
2022-08-28T15:26:57.005Z,35.70
2022-08-28T15:29:24.151Z,35.80
2022-08-28T15:31:51.245Z,35.20
2022-08-28T15:34:23.353Z,34.60
2022-08-28T15:36:55.158Z,34.80
2022-08-28T15:39:45.242Z,35.70
2022-08-28T15:42:12.329Z,35.50
2022-08-28T15:44:39.445Z,35.40
2022-08-28T15:47:06.570Z,35.80
2022-08-28T15:49:38.936Z,35.60
2022-08-28T15:52:13.958Z,34.90
2022-08-28T15:54:41.823Z,35.40
2022-08-28T15:57:08.730Z,33.80
2022-08-28T15:59:39.997Z,33.80
2022-08-28T16:02:16.482Z,34.30
2022-08-28T16:04:43.769Z,35.20
2022-08-28T16:07:11.216Z,34.50
2022-08-28T16:09:38.211Z,34.80
2022-08-28T16:12:05.557Z,35.50
2022-08-28T16:14:33.212Z,35.60
2022-08-28T16:17:06.026Z,35.70
2022-08-28T16:19:39.785Z,36.20
2022-08-28T16:22:07.187Z,36.30
2022-08-28T16:24:34.479Z,36.10
2022-08-28T16:27:01.510Z,36.20
2022-08-28T16:29:28.765Z,36.70
2022-08-28T16:31:56.872Z,37.10
2022-08-28T16:34:26.132Z,37.10
2022-08-28T16:36:56.474Z,36.70
2022-08-28T16:39:23.389Z,35.90
2022-08-28T16:41:50.385Z,36.00
2022-08-28T16:44:22.170Z,36.30
2022-08-28T16:46:49.256Z,37.10
2022-08-28T16:49:16.350Z,36.70
2022-08-28T16:51:43.278Z,36.80
2022-08-28T16:54:10.402Z,36.70
2022-08-28T16:56:37.331Z,36.80
2022-08-28T16:59:04.545Z,37.50
2022-08-28T17:01:38.018Z,38.10
2022-08-28T17:04:07.701Z,38.20
2022-08-28T17:06:35.008Z,40.00
2022-08-28T17:09:02.011Z,41.30
2022-08-28T17:11:29.338Z,41.60
2022-08-28T17:13:56.807Z,40.70
2022-08-28T17:16:24.449Z,42.40
2022-08-28T17:18:52.236Z,42.70
2022-08-28T17:21:39.431Z,42.10
2022-08-28T17:24:07.054Z,42.30
2022-08-28T17:26:34.041Z,41.70
2022-08-28T17:29:01.023Z,42.00
2022-08-28T17:31:28.053Z,43.30
2022-08-28T17:33:55.099Z,42.40
2022-08-28T17:36:33.108Z,43.90
2022-08-28T17:39:05.554Z,43.80
2022-08-28T17:41:33.575Z,44.60
2022-08-28T17:44:01.109Z,43.80
2022-08-28T17:46:28.322Z,45.60
2022-08-28T17:48:56.088Z,43.90
2022-08-28T17:51:33.767Z,47.20
2022-08-28T17:54:18.597Z,45.60
2022-08-28T17:56:46.475Z,45.70
2022-08-28T17:59:13.722Z,45.40
2022-08-28T18:01:41.928Z,44.50
2022-08-28T18:04:09.244Z,45.10
2022-08-28T18:06:36.406Z,45.40
2022-08-28T18:09:04.306Z,46.40
2022-08-28T18:11:31.257Z,47.30
2022-08-28T18:13:59.842Z,47.30
2022-08-28T18:16:31.141Z,47.20
2022-08-28T18:18:59.721Z,48.20
2022-08-28T18:21:26.655Z,48.30
2022-08-28T18:23:53.579Z,47.30
2022-08-28T18:26:20.533Z,47.30
2022-08-28T18:28:47.627Z,47.00
2022-08-28T18:31:14.631Z,49.40
2022-08-28T18:33:41.640Z,49.60
2022-08-28T18:36:09.588Z,50.60
2022-08-28T18:38:37.082Z,49.20
2022-08-28T18:41:04.765Z,48.40
2022-08-28T18:43:31.987Z,51.00
2022-08-28T18:45:59.786Z,51.00
2022-08-28T18:48:26.733Z,52.00
2022-08-28T18:50:53.710Z,50.60
2022-08-28T18:53:21.670Z,51.40
2022-08-28T18:55:52.663Z,50.70
2022-08-28T18:58:21.390Z,53.10
2022-08-28T19:00:48.410Z,52.40
2022-08-28T19:03:15.655Z,55.50
2022-08-28T19:05:42.646Z,56.10
2022-08-28T19:08:09.656Z,56.50
2022-08-28T19:10:37.569Z,53.90
2022-08-28T19:13:05.179Z,54.30
2022-08-28T19:15:32.258Z,55.10
2022-08-28T19:18:00.487Z,57.80
2022-08-28T19:20:28.214Z,55.10
2022-08-28T19:22:56.251Z,54.70
2022-08-28T19:25:27.631Z,56.70
2022-08-28T19:27:59.272Z,58.70
2022-08-28T19:30:27.472Z,56.50
2022-08-28T19:32:54.475Z,56.70
2022-08-28T19:35:24.141Z,57.70
2022-08-28T19:37:52.669Z,56.80
2022-08-28T19:40:20.602Z,59.60
2022-08-28T19:42:49.880Z,57.60
2022-08-28T19:45:17.835Z,59.60
2022-08-28T19:47:44.962Z,57.20
2022-08-28T19:50:12.388Z,58.10
2022-08-28T19:52:39.471Z,58.80
2022-08-28T19:55:06.983Z,57.20
2022-08-28T19:57:34.359Z,57.70
2022-08-28T20:00:01.924Z,60.50
2022-08-28T20:02:31.187Z,58.70
2022-08-28T20:04:58.171Z,61.00
2022-08-28T20:07:25.211Z,60.00
2022-08-28T20:09:52.424Z,59.80
2022-08-28T20:12:19.644Z,59.00
2022-08-28T20:14:46.717Z,60.00
2022-08-28T20:17:14.104Z,59.80
2022-08-28T20:19:41.428Z,60.40
2022-08-28T20:22:08.479Z,60.60
2022-08-28T20:24:35.419Z,59.70
2022-08-28T20:27:02.348Z,59.70
2022-08-28T20:29:29.349Z,60.60
2022-08-28T20:31:56.272Z,62.30
2022-08-28T20:34:23.447Z,59.60
2022-08-28T20:36:50.383Z,59.50
2022-08-28T20:39:17.487Z,60.50
2022-08-28T20:41:44.713Z,59.50
2022-08-28T20:44:12.951Z,59.50
2022-08-28T20:46:42.218Z,61.20
2022-08-28T20:49:10.559Z,59.50
2022-08-28T20:51:53.110Z,61.90
2022-08-28T20:54:21.590Z,59.40
2022-08-28T20:56:49.447Z,59.40
2022-08-28T20:59:16.891Z,59.40
2022-08-28T21:01:43.872Z,59.40
2022-08-28T21:04:10.972Z,60.50
2022-08-28T21:06:38.478Z,60.40
2022-08-28T21:09:05.445Z,60.70
2022-08-28T21:11:32.379Z,60.20
2022-08-28T21:13:59.336Z,62.10
2022-08-28T21:16:26.302Z,60.70
2022-08-28T21:19:14.543Z,61.30
2022-08-28T21:21:40.449Z,62.10
2022-08-28T21:24:08.556Z,61.10
2022-08-28T21:26:37.661Z,61.60
2022-08-28T21:29:07.682Z,61.50
2022-08-28T21:31:34.713Z,62.40
2022-08-28T21:34:01.918Z,62.10
2022-08-28T21:36:28.852Z,62.10
2022-08-28T21:38:57.478Z,64.60
2022-08-28T21:41:24.443Z,62.90
2022-08-28T21:43:51.428Z,63.10
2022-08-28T21:46:18.475Z,62.50
2022-08-28T21:48:48.499Z,62.90
2022-08-28T21:51:15.815Z,63.50
2022-08-28T21:53:43.135Z,62.80
2022-08-28T21:56:10.554Z,63.80
2022-08-28T21:58:38.663Z,63.20
2022-08-28T22:01:05.753Z,63.50
2022-08-28T22:03:33.326Z,63.30
2022-08-28T22:06:00.362Z,63.20
2022-08-28T22:08:28.724Z,63.50
2022-08-28T22:10:56.260Z,63.10
2022-08-28T22:13:23.369Z,65.10
2022-08-28T22:15:50.389Z,63.60
2022-08-28T22:18:17.447Z,63.50
2022-08-28T22:21:03.325Z,64.00
2022-08-28T22:23:34.697Z,63.30
2022-08-28T22:26:06.772Z,64.40
2022-08-28T22:28:33.811Z,64.80
2022-08-28T22:31:02.040Z,64.00
2022-08-28T22:33:30.204Z,63.50
2022-08-28T22:35:57.263Z,64.30
2022-08-28T22:38:26.355Z,64.40
2022-08-28T22:40:53.390Z,64.90
2022-08-28T22:43:20.403Z,63.90
2022-08-28T22:45:47.613Z,65.50
2022-08-28T22:48:15.839Z,64.90
2022-08-28T22:50:46.025Z,64.40
2022-08-28T22:53:13.415Z,65.60
2022-08-28T22:55:43.548Z,65.40
2022-08-28T22:58:10.959Z,65.50
2022-08-28T23:00:38.499Z,65.00
2022-08-28T23:03:05.693Z,66.80
2022-08-28T23:05:33.487Z,66.10
2022-08-28T23:08:00.461Z,67.00
2022-08-28T23:10:48.198Z,65.90
2022-08-28T23:13:15.259Z,66.30
2022-08-28T23:15:43.221Z,65.80
2022-08-28T23:18:10.844Z,66.00
2022-08-28T23:20:37.919Z,66.10
2022-08-28T23:23:04.908Z,65.90
2022-08-28T23:25:31.883Z,65.80
2022-08-28T23:28:00.104Z,65.90
2022-08-28T23:30:29.371Z,65.80
2022-08-28T23:32:56.350Z,67.00
2022-08-28T23:35:23.475Z,66.10
2022-08-28T23:37:51.895Z,67.20
2022-08-28T23:40:21.588Z,66.30
2022-08-28T23:42:49.063Z,67.90
2022-08-28T23:45:17.248Z,66.90
2022-08-28T23:47:44.483Z,67.20
2022-08-28T23:50:14.199Z,67.70
2022-08-28T23:52:43.146Z,69.00
2022-08-28T23:55:12.169Z,68.20
2022-08-28T23:57:39.112Z,69.00
